createdAt,value
2023-03-22T00:01:32.671Z,94467.00
2023-03-22T00:05:32.810Z,94463.00
2023-03-22T00:09:32.984Z,94459.00
2023-03-22T00:13:35.392Z,94463.00
2023-03-22T00:17:33.089Z,94459.00
2023-03-22T00:21:33.037Z,94461.00
2023-03-22T00:25:33.001Z,94461.00
2023-03-22T00:29:32.986Z,94459.00
2023-03-22T00:33:32.953Z,94459.00
2023-03-22T00:37:32.890Z,94461.00
2023-03-22T00:41:32.848Z,94459.00
2023-03-22T00:45:32.853Z,94453.00
2023-03-22T00:49:32.873Z,94449.00
2023-03-22T00:53:32.761Z,94447.00
2023-03-22T00:57:32.708Z,94445.00
2023-03-22T01:01:32.792Z,94443.00
2023-03-22T01:05:32.639Z,94443.00
2023-03-22T01:09:32.669Z,94438.00
2023-03-22T01:13:32.837Z,94434.00
2023-03-22T01:17:32.980Z,94430.00
2023-03-22T01:21:33.125Z,94426.00
2023-03-22T01:25:33.259Z,94428.00
2023-03-22T01:29:33.413Z,94424.00
2023-03-22T01:33:33.561Z,94430.00
2023-03-22T01:37:33.728Z,94426.00
2023-03-22T01:41:33.851Z,94420.00
2023-03-22T01:45:34.035Z,94422.00
2023-03-22T01:49:34.175Z,94422.00
2023-03-22T01:53:34.332Z,94422.00
2023-03-22T01:57:34.474Z,94420.00
2023-03-22T02:01:34.743Z,94422.00
2023-03-22T02:05:34.785Z,94424.00
2023-03-22T02:09:34.930Z,94428.00
2023-03-22T02:13:35.093Z,94436.00
2023-03-22T02:17:35.310Z,94441.00
2023-03-22T02:21:35.386Z,94441.00
2023-03-22T02:25:35.530Z,94440.00
2023-03-22T02:29:35.684Z,94443.00
2023-03-22T02:33:35.861Z,94443.00
2023-03-22T02:37:35.965Z,94449.00
2023-03-22T02:41:36.096Z,94443.00
2023-03-22T02:45:36.246Z,94438.00
2023-03-22T02:49:36.406Z,94436.00
2023-03-22T02:53:36.553Z,94438.00
2023-03-22T02:57:36.700Z,94440.00
2023-03-22T03:01:36.934Z,94436.00
2023-03-22T03:05:36.995Z,94432.00
2023-03-22T03:09:37.144Z,94434.00
2023-03-22T03:13:37.264Z,94432.00
2023-03-22T03:17:37.428Z,94426.00
2023-03-22T03:21:37.588Z,94422.00
2023-03-22T03:25:37.751Z,94422.00
2023-03-22T03:29:37.857Z,94418.00
2023-03-22T03:33:37.996Z,94422.00
2023-03-22T03:37:38.170Z,94426.00
2023-03-22T03:41:38.314Z,94420.00
2023-03-22T03:45:38.553Z,94420.00
2023-03-22T03:49:38.576Z,94420.00
2023-03-22T03:53:38.702Z,94420.00
2023-03-22T03:57:38.838Z,94416.00
2023-03-22T04:01:38.988Z,94412.00
2023-03-22T04:05:39.137Z,94410.00
2023-03-22T04:09:39.290Z,94412.00
2023-03-22T04:13:39.414Z,94406.00
2023-03-22T04:17:39.576Z,94408.00
2023-03-22T04:21:39.689Z,94410.00
2023-03-22T04:25:39.827Z,94412.00
2023-03-22T04:29:39.941Z,94412.00
2023-03-22T04:33:40.092Z,94412.00
2023-03-22T04:37:40.221Z,94412.00
2023-03-22T04:41:40.374Z,94412.00
2023-03-22T04:45:40.506Z,94410.00
2023-03-22T04:49:40.658Z,94408.00
2023-03-22T04:53:40.919Z,94408.00
2023-03-22T04:57:40.942Z,94410.00
2023-03-22T05:01:41.100Z,94412.00
2023-03-22T05:05:41.213Z,94416.00
2023-03-22T05:09:41.385Z,94420.00
2023-03-22T05:13:41.611Z,94420.00
2023-03-22T05:17:41.669Z,94424.00
2023-03-22T05:21:41.812Z,94426.00
2023-03-22T05:25:41.962Z,94428.00
2023-03-22T05:29:42.108Z,94428.00
2023-03-22T05:33:42.276Z,94428.00
2023-03-22T05:37:42.413Z,94430.00
2023-03-22T05:41:42.591Z,94426.00
2023-03-22T05:45:42.722Z,94428.00
2023-03-22T05:49:42.869Z,94438.00
2023-03-22T05:53:43.016Z,94441.00
2023-03-22T05:57:43.198Z,94440.00
2023-03-22T06:01:43.368Z,94443.00
2023-03-22T06:05:43.472Z,94440.00
2023-03-22T06:09:43.595Z,94440.00
2023-03-22T06:13:43.741Z,94441.00
2023-03-22T06:17:43.908Z,94447.00
2023-03-22T06:21:43.973Z,94451.00
2023-03-22T06:25:44.103Z,94449.00
2023-03-22T06:29:44.190Z,94451.00
2023-03-22T06:33:44.231Z,94455.00
2023-03-22T06:37:44.385Z,94459.00
2023-03-22T06:41:44.328Z,94459.00
2023-03-22T06:45:44.844Z,94457.00
2023-03-22T06:49:44.250Z,94455.00
2023-03-22T06:53:44.222Z,94451.00
2023-03-22T06:57:44.156Z,94447.00
2023-03-22T07:01:44.359Z,94445.00
2023-03-22T07:05:44.100Z,94449.00
2023-03-22T07:09:44.077Z,94447.00
2023-03-22T07:13:44.060Z,94447.00
2023-03-22T07:17:43.984Z,94449.00
2023-03-22T07:21:43.947Z,94449.00
2023-03-22T07:25:44.284Z,94447.00
2023-03-22T07:29:43.874Z,94445.00
2023-03-22T07:33:43.850Z,94438.00
2023-03-22T07:37:43.804Z,94434.00
2023-03-22T07:41:43.908Z,94432.00
2023-03-22T07:45:44.142Z,94432.00
2023-03-22T07:49:44.174Z,94424.00
2023-03-22T07:53:44.300Z,94422.00
2023-03-22T07:57:44.391Z,94418.00
2023-03-22T08:01:44.599Z,94416.00
2023-03-22T08:05:44.623Z,94416.00
2023-03-22T08:09:44.636Z,94416.00
2023-03-22T08:13:44.798Z,94416.00
2023-03-22T08:17:44.723Z,94410.00
2023-03-22T08:21:44.746Z,94414.00
2023-03-22T08:25:44.808Z,94418.00
2023-03-22T08:29:44.809Z,94406.00
2023-03-22T08:33:44.895Z,94410.00
2023-03-22T08:37:44.956Z,94400.00
2023-03-22T08:41:45.326Z,94396.00
2023-03-22T08:45:45.091Z,94394.00
2023-03-22T08:49:45.366Z,94387.00
2023-03-22T08:53:45.304Z,94369.00
2023-03-22T08:57:45.816Z,94365.00
2023-03-22T09:01:45.578Z,94359.00
2023-03-22T09:05:45.554Z,94353.00
2023-03-22T09:09:45.748Z,94351.00
2023-03-22T09:13:45.818Z,94348.00
2023-03-22T09:17:45.862Z,94346.00
2023-03-22T09:21:46.330Z,94336.00
2023-03-22T09:25:46.014Z,94330.00
2023-03-22T09:29:46.012Z,94322.00
2023-03-22T09:33:46.017Z,94310.00
2023-03-22T09:37:46.020Z,94304.00
2023-03-22T09:41:46.073Z,94301.00
2023-03-22T09:45:45.937Z,94295.00
2023-03-22T09:49:53.290Z,94291.00
2023-03-22T09:53:46.843Z,94285.00
2023-03-22T09:57:45.821Z,94277.00
2023-03-22T10:01:46.006Z,94265.00
2023-03-22T10:05:45.765Z,94263.00
2023-03-22T10:09:45.690Z,94259.00
2023-03-22T10:13:45.657Z,94252.00
2023-03-22T10:17:45.641Z,94246.00
2023-03-22T10:21:45.885Z,94236.00
2023-03-22T10:25:46.092Z,94230.00
2023-03-22T10:29:46.351Z,94226.00
2023-03-22T10:33:46.193Z,94222.00
2023-03-22T10:37:46.192Z,94218.00
2023-03-22T10:41:46.353Z,94214.00
2023-03-22T10:45:46.108Z,94212.00
2023-03-22T10:49:46.377Z,94212.00
2023-03-22T10:53:46.373Z,94208.00
2023-03-22T10:57:45.987Z,94199.00
2023-03-22T11:01:47.114Z,94193.00
2023-03-22T11:05:45.987Z,94185.00
2023-03-22T11:09:45.878Z,94177.00
2023-03-22T11:13:45.944Z,94173.00
2023-03-22T11:17:46.381Z,94161.00
2023-03-22T11:21:46.335Z,94155.00
2023-03-22T11:25:46.543Z,94152.00
2023-03-22T11:29:46.723Z,94148.00
2023-03-22T11:33:46.677Z,94140.00
2023-03-22T11:37:46.629Z,94130.00
2023-03-22T11:41:46.609Z,94112.00
2023-03-22T11:45:46.780Z,94107.00
2023-03-22T11:49:46.532Z,94101.00
2023-03-22T11:53:46.488Z,94095.00
2023-03-22T11:57:46.479Z,94093.00
2023-03-22T12:01:46.411Z,94089.00
2023-03-22T12:05:46.495Z,94081.00
2023-03-22T12:09:46.401Z,94077.00
2023-03-22T12:13:46.404Z,94067.00
2023-03-22T12:17:46.461Z,94060.00
2023-03-22T12:21:46.233Z,94054.00
2023-03-22T12:25:46.182Z,94048.00
2023-03-22T12:29:46.202Z,94040.00
2023-03-22T12:33:46.220Z,94032.00
2023-03-22T12:37:46.072Z,94022.00
2023-03-22T12:41:46.422Z,94011.00
2023-03-22T12:45:46.066Z,94005.00
2023-03-22T12:49:46.033Z,93999.00
2023-03-22T12:53:46.176Z,93997.00
2023-03-22T12:57:46.276Z,93989.00
2023-03-22T13:01:46.412Z,93985.00
2023-03-22T13:05:46.501Z,93981.00
2023-03-22T13:09:46.940Z,93977.00
2023-03-22T13:13:46.919Z,93965.00
2023-03-22T13:17:47.039Z,93965.00
2023-03-22T13:21:46.955Z,93965.00
2023-03-22T13:25:47.022Z,93961.00
2023-03-22T13:29:47.045Z,93950.00
2023-03-22T13:33:47.075Z,93940.00
2023-03-22T13:37:47.075Z,93936.00
2023-03-22T13:41:47.039Z,93926.00
2023-03-22T13:45:47.022Z,93916.00
2023-03-22T13:49:46.960Z,93912.00
2023-03-22T13:53:46.952Z,93911.00
2023-03-22T13:57:46.939Z,93911.00
2023-03-22T14:01:47.016Z,93903.00
2023-03-22T14:05:47.029Z,93899.00
2023-03-22T14:09:46.961Z,93895.00
2023-03-22T14:13:46.992Z,93893.00
2023-03-22T14:17:48.780Z,93883.00
2023-03-22T14:21:46.998Z,93883.00
2023-03-22T14:46:37.898Z,93856.00
2023-03-22T14:50:37.900Z,93858.00
2023-03-22T14:54:37.900Z,93856.00
2023-03-22T14:58:37.897Z,93856.00
2023-03-22T15:02:38.012Z,93848.00
2023-03-22T15:06:37.498Z,93842.00
2023-03-22T15:10:37.476Z,93838.00
2023-03-22T15:14:37.437Z,93838.00
2023-03-22T15:18:37.565Z,93836.00
2023-03-22T15:22:37.538Z,93836.00
2023-03-22T15:26:37.481Z,93832.00
2023-03-22T15:30:37.454Z,93840.00
2023-03-22T15:34:37.413Z,93836.00
2023-03-22T15:38:43.296Z,93836.00
2023-03-22T15:42:38.322Z,93834.00
2023-03-22T15:46:37.334Z,93836.00
2023-03-22T15:50:37.313Z,93844.00
2023-03-22T15:54:37.262Z,93848.00
2023-03-22T15:58:37.230Z,93844.00
2023-03-22T16:02:37.186Z,93850.00
2023-03-22T16:06:37.177Z,93852.00
2023-03-22T16:10:37.137Z,93856.00
2023-03-22T16:14:38.356Z,93858.00
2023-03-22T16:18:37.032Z,93866.00
2023-03-22T16:22:37.009Z,93873.00
2023-03-22T16:26:37.174Z,93877.00
2023-03-22T16:30:37.155Z,93879.00
2023-03-22T16:34:37.110Z,93883.00
2023-03-22T16:38:37.095Z,93885.00
2023-03-22T16:42:37.048Z,93887.00
2023-03-22T16:46:37.195Z,93893.00
2023-03-22T16:50:36.975Z,93903.00
2023-03-22T16:54:37.947Z,93907.00
2023-03-22T16:58:36.901Z,93911.00
2023-03-22T17:02:36.864Z,93914.00
2023-03-22T17:06:36.809Z,93920.00
2023-03-22T17:10:36.781Z,93922.00
2023-03-22T17:14:36.744Z,93924.00
2023-03-22T17:18:36.718Z,93930.00
2023-03-22T17:22:36.659Z,93936.00
2023-03-22T17:26:36.727Z,93942.00
2023-03-22T17:30:36.704Z,93958.00
2023-03-22T17:34:36.543Z,93956.00
2023-03-22T17:42:36.495Z,93967.00
2023-03-22T17:47:13.424Z,93975.00
2023-03-22T17:50:37.432Z,93983.00
2023-03-22T17:58:41.709Z,93997.00
2023-03-22T18:02:36.572Z,94003.00
2023-03-22T18:06:36.600Z,94011.00
2023-03-22T18:10:36.647Z,94022.00
2023-03-22T18:14:41.160Z,94028.00
2023-03-22T18:18:36.704Z,94030.00
2023-03-22T18:22:36.669Z,94046.00
2023-03-22T18:30:36.630Z,94054.00
2023-03-22T18:34:36.554Z,94063.00
2023-03-22T18:39:16.858Z,94069.00
2023-03-22T18:42:48.149Z,94077.00
2023-03-22T18:46:37.502Z,94079.00
2023-03-22T18:50:36.413Z,94083.00
2023-03-22T18:54:39.038Z,94089.00
2023-03-22T18:58:36.502Z,94089.00
2023-03-22T19:02:39.894Z,94091.00
2023-03-22T19:06:36.507Z,94091.00
2023-03-22T19:10:36.494Z,94093.00
2023-03-22T19:18:36.517Z,94093.00
2023-03-22T19:22:36.128Z,94097.00
2023-03-22T19:26:39.828Z,94101.00
2023-03-22T19:30:36.502Z,94105.00
2023-03-22T19:34:36.010Z,94108.00
2023-03-22T19:38:36.090Z,94107.00
2023-03-22T19:42:36.827Z,94108.00
2023-03-22T19:46:36.071Z,94110.00
2023-03-22T19:50:35.859Z,94107.00
2023-03-22T19:54:43.401Z,94105.00
2023-03-22T19:58:36.840Z,94108.00
2023-03-22T20:02:35.778Z,94112.00
2023-03-22T20:06:36.589Z,94114.00
2023-03-22T20:10:35.698Z,94116.00
2023-03-22T20:14:35.669Z,94130.00
2023-03-22T20:18:35.629Z,94134.00
2023-03-22T20:22:35.585Z,94142.00
2023-03-22T20:26:35.560Z,94146.00
2023-03-22T20:30:35.504Z,94152.00
2023-03-22T20:34:35.517Z,94153.00
2023-03-22T20:38:35.540Z,94152.00
2023-03-22T20:42:35.575Z,94153.00
2023-03-22T20:46:35.602Z,94155.00
2023-03-22T20:50:35.654Z,94157.00
2023-03-22T20:54:35.689Z,94161.00
2023-03-22T20:58:35.707Z,94159.00
2023-03-22T21:02:35.731Z,94161.00
2023-03-22T21:06:35.775Z,94167.00
2023-03-22T21:10:35.825Z,94171.00
2023-03-22T21:14:35.867Z,94173.00
2023-03-22T21:18:35.895Z,94179.00
2023-03-22T21:22:35.959Z,94183.00
2023-03-22T21:26:35.993Z,94181.00
2023-03-22T21:30:36.040Z,94189.00
2023-03-22T21:34:36.144Z,94189.00
2023-03-22T21:38:36.270Z,94189.00
2023-03-22T21:42:36.986Z,94191.00
2023-03-22T21:46:36.505Z,94189.00
2023-03-22T21:50:36.592Z,94189.00
2023-03-22T21:54:36.682Z,94191.00
2023-03-22T21:58:36.793Z,94197.00
2023-03-22T22:02:36.893Z,94199.00
2023-03-22T22:06:37.000Z,94205.00
2023-03-22T22:10:37.113Z,94210.00
2023-03-22T22:14:37.217Z,94212.00
2023-03-22T22:18:37.332Z,94212.00
2023-03-22T22:22:37.412Z,94214.00
2023-03-22T22:26:37.511Z,94212.00
2023-03-22T22:30:37.630Z,94210.00
2023-03-22T22:34:37.707Z,94210.00
2023-03-22T22:38:37.823Z,94208.00
2023-03-22T22:42:37.925Z,94208.00
2023-03-22T22:46:38.044Z,94212.00
2023-03-22T22:50:38.136Z,94210.00
2023-03-22T22:54:38.217Z,94205.00
2023-03-22T22:58:38.321Z,94203.00
2023-03-22T23:02:38.445Z,94201.00
2023-03-22T23:06:38.518Z,94199.00
2023-03-22T23:10:38.627Z,94205.00
2023-03-22T23:14:38.745Z,94205.00
2023-03-22T23:18:38.845Z,94205.00
2023-03-22T23:22:38.947Z,94207.00
2023-03-22T23:26:39.082Z,94205.00
2023-03-22T23:30:39.150Z,94207.00
2023-03-22T23:34:39.222Z,94203.00
2023-03-22T23:38:39.326Z,94205.00
2023-03-22T23:42:39.485Z,94208.00
2023-03-22T23:46:39.562Z,94205.00
2023-03-22T23:50:39.681Z,94208.00
2023-03-22T23:54:39.770Z,94207.00
2023-03-22T23:58:39.919Z,94205.00
